Terminal Aerodrome Forecast
Issued by NWS Upton, NY

Home | Current Version | Previous Version | Text Only | Print | Product List | Glossary On
Versions: 1 2 3 4 5 6 7 8 9 10 11 12 13 14 15 16 17 18 19 20 21 22 23 24 25 26 27 28 29 30 31 32 33
124
FTUS41 KOKX 222346
TAFJFK
TAF
KJFK 222346Z 2300/2406 19014KT P6SM FEW250
     FM230100 20010KT P6SM FEW250
     FM230200 22007KT P6SM SKC
     FM230500 VRB05KT P6SM SKC
     FM230800 36005KT P6SM SKC
     FM231200 05006KT P6SM SKC
     FM231500 14007KT P6SM SKC
     FM231800 16010KT P6SM FEW050
     FM240000 16007KT P6SM FEW050=

USA.gov is the U.S. government's official web portal to all federal, state and local government web resources and services.